createdAt,value
2022-12-23T08:05:27.071Z,135.00
2022-12-23T08:06:27.682Z,125.00
2022-12-23T08:07:27.748Z,138.00
2022-12-23T08:08:27.670Z,136.00
2022-12-23T08:09:27.760Z,174.00
2022-12-23T08:10:27.674Z,190.00
2022-12-23T08:11:27.777Z,189.00
2022-12-23T08:12:27.625Z,182.00
2022-12-23T08:13:27.796Z,183.00
2022-12-23T08:14:27.597Z,174.00
2022-12-23T08:15:27.833Z,179.00
2022-12-23T08:16:27.699Z,187.00
2022-12-23T08:17:27.820Z,198.00
2022-12-23T08:18:27.547Z,186.00
2022-12-23T08:19:27.777Z,186.00
2022-12-23T08:20:27.551Z,189.00
2022-12-23T08:21:27.849Z,192.00
2022-12-23T08:22:27.577Z,193.00
2022-12-23T08:23:27.770Z,204.00
2022-12-23T08:24:27.549Z,220.00
2022-12-23T08:25:27.497Z,251.00
2022-12-23T08:26:27.604Z,264.00
2022-12-23T08:27:27.486Z,272.00
2022-12-23T08:28:27.693Z,273.00
2022-12-23T08:29:31.307Z,265.00
2022-12-23T08:30:27.457Z,244.00
2022-12-23T08:31:27.789Z,245.00
2022-12-23T08:32:27.450Z,291.00
2022-12-23T08:33:27.686Z,278.00
2022-12-23T08:34:27.399Z,286.00
2022-12-23T08:35:28.559Z,293.00
2022-12-23T08:36:27.389Z,290.00
2022-12-23T08:37:29.662Z,254.00
2022-12-23T08:38:27.339Z,220.00
2022-12-23T08:39:27.580Z,252.00
2022-12-23T08:40:27.314Z,223.00
2022-12-23T08:41:50.664Z,286.00
2022-12-23T08:42:27.317Z,303.00
2022-12-23T08:43:31.962Z,245.00
2022-12-23T08:44:27.273Z,306.00
2022-12-23T08:45:28.545Z,273.00
2022-12-23T08:46:27.438Z,189.00
2022-12-23T08:47:27.341Z,221.00
2022-12-23T08:48:27.242Z,266.00
2022-12-23T08:49:29.398Z,293.00
2022-12-23T08:50:27.225Z,236.00
2022-12-23T08:51:27.363Z,120.00
2022-12-23T08:52:27.235Z,157.00
2022-12-23T08:53:27.249Z,203.00
2022-12-23T08:54:27.159Z,293.00
2022-12-23T08:55:27.374Z,338.00
2022-12-23T08:56:27.191Z,290.00
2022-12-23T08:57:27.304Z,406.00
2022-12-23T08:58:27.135Z,409.00
2022-12-23T08:59:27.303Z,433.00
2022-12-23T09:00:27.310Z,444.00
2022-12-23T09:01:27.308Z,442.00
2022-12-23T09:02:29.661Z,323.00
2022-12-23T09:03:27.247Z,186.00
2022-12-23T09:04:27.339Z,318.00
2022-12-23T09:05:32.288Z,329.00
2022-12-23T09:06:30.007Z,418.00
2022-12-23T09:07:32.310Z,396.00
2022-12-23T09:08:27.033Z,337.00
2022-12-23T09:09:30.261Z,191.00
2022-12-23T09:10:29.216Z,308.00
2022-12-23T09:11:26.999Z,333.00
2022-12-23T09:12:29.226Z,291.00
2022-12-23T09:13:34.860Z,350.00
2022-12-23T09:14:26.998Z,416.00
2022-12-23T09:15:31.475Z,436.00
2022-12-23T09:16:27.023Z,409.00
2022-12-23T09:17:47.999Z,416.00
2022-12-23T09:18:26.916Z,411.00
2022-12-23T09:19:52.750Z,420.00
2022-12-23T09:20:27.007Z,422.00
2022-12-23T09:21:26.868Z,423.00
2022-12-23T09:22:26.936Z,405.00
2022-12-23T09:23:26.841Z,414.00
2022-12-23T09:24:26.983Z,411.00
2022-12-23T09:25:26.852Z,424.00
2022-12-23T09:26:48.060Z,434.00
2022-12-23T09:27:26.810Z,446.00
2022-12-23T09:28:26.888Z,469.00
2022-12-23T09:29:26.808Z,490.00
2022-12-23T09:30:26.895Z,491.00
2022-12-23T09:31:30.800Z,496.00
2022-12-23T09:32:26.759Z,485.00
2022-12-23T09:33:27.939Z,507.00
2022-12-23T09:34:26.738Z,525.00
2022-12-23T09:35:26.924Z,523.00
2022-12-23T09:36:26.732Z,501.00
2022-12-23T09:37:26.979Z,479.00
2022-12-23T09:38:26.684Z,443.00
2022-12-23T09:39:26.790Z,429.00
2022-12-23T09:40:26.665Z,445.00
2022-12-23T09:41:26.780Z,444.00
2022-12-23T09:42:26.675Z,418.00
2022-12-23T09:43:26.831Z,408.00
2022-12-23T09:44:26.618Z,413.00
2022-12-23T09:45:26.696Z,403.00
2022-12-23T09:46:26.679Z,410.00
2022-12-23T09:47:26.761Z,434.00
2022-12-23T09:48:26.582Z,441.00
2022-12-23T09:49:26.718Z,432.00
2022-12-23T09:50:26.583Z,413.00
2022-12-23T09:51:26.743Z,403.00
2022-12-23T09:52:26.571Z,401.00
2022-12-23T09:53:26.745Z,361.00
2022-12-23T09:54:26.536Z,320.00
2022-12-23T09:55:26.754Z,278.00
2022-12-23T09:56:26.517Z,227.00
2022-12-23T09:57:26.589Z,235.00
2022-12-23T09:58:26.503Z,296.00
2022-12-23T09:59:26.585Z,344.00
2022-12-23T10:00:26.467Z,387.00
2022-12-23T10:01:48.868Z,414.00
2022-12-23T10:02:26.702Z,462.00
2022-12-23T10:03:47.667Z,513.00
2022-12-23T10:04:26.482Z,509.00
2022-12-23T10:05:47.525Z,438.00
2022-12-23T10:06:47.526Z,387.00
2022-12-23T10:07:26.371Z,364.00
2022-12-23T10:08:26.402Z,353.00
2022-12-23T10:09:26.446Z,321.00
2022-12-23T10:10:26.357Z,339.00
2022-12-23T10:11:26.460Z,380.00
2022-12-23T10:12:28.864Z,557.00
2022-12-23T10:13:26.524Z,920.00
2022-12-23T10:14:26.298Z,1144.00
2022-12-23T10:15:26.486Z,1121.00
2022-12-23T10:16:26.354Z,1201.00
2022-12-23T10:17:26.528Z,1247.00
2022-12-23T10:18:26.625Z,1285.00
2022-12-23T10:19:26.316Z,1479.00
2022-12-23T10:20:26.243Z,1508.00
2022-12-23T10:21:26.332Z,1428.00
2022-12-23T10:22:26.231Z,1298.00
2022-12-23T10:23:26.344Z,1181.00
2022-12-23T10:24:26.236Z,1105.00
2022-12-23T10:25:26.384Z,1057.00
2022-12-23T10:26:26.234Z,968.00
2022-12-23T10:27:26.369Z,870.00
2022-12-23T10:28:29.570Z,740.00
2022-12-23T10:29:26.390Z,659.00
2022-12-23T10:30:56.852Z,605.00
2022-12-23T10:31:41.873Z,564.00
2022-12-23T10:32:26.251Z,539.00
2022-12-23T10:33:26.313Z,536.00
2022-12-23T10:34:26.107Z,536.00
2022-12-23T10:35:26.316Z,552.00
2022-12-23T10:36:26.171Z,593.00
2022-12-23T10:37:47.252Z,611.00
2022-12-23T10:38:26.046Z,612.00
2022-12-23T10:39:26.180Z,591.00
2022-12-23T10:40:26.034Z,584.00
2022-12-23T10:41:27.225Z,616.00
2022-12-23T10:42:26.005Z,641.00
2022-12-23T10:43:27.256Z,655.00
2022-12-23T10:44:25.987Z,701.00
2022-12-23T10:45:26.097Z,746.00
2022-12-23T10:46:26.032Z,769.00
2022-12-23T10:47:48.238Z,807.00
2022-12-23T10:48:25.951Z,873.00
2022-12-23T10:49:25.923Z,933.00
2022-12-23T10:50:28.216Z,990.00
2022-12-23T10:51:25.911Z,1009.00
2022-12-23T10:52:47.027Z,951.00
2022-12-23T10:53:25.898Z,868.00
2022-12-23T10:54:25.942Z,770.00
2022-12-23T10:55:31.291Z,689.00
2022-12-23T10:56:25.921Z,612.00
2022-12-23T10:57:26.091Z,548.00
2022-12-23T10:58:25.907Z,556.00
2022-12-23T10:59:25.910Z,615.00
2022-12-23T11:00:25.899Z,658.00
2022-12-23T11:01:27.342Z,726.00
2022-12-23T11:02:25.977Z,740.00
2022-12-23T11:03:26.176Z,720.00
2022-12-23T11:04:25.783Z,717.00
2022-12-23T11:05:25.855Z,765.00
2022-12-23T11:06:27.919Z,786.00
2022-12-23T11:08:25.749Z,877.00
2022-12-23T11:09:25.731Z,925.00
2022-12-23T11:10:25.882Z,944.00
2022-12-23T11:11:25.705Z,946.00
2022-12-23T11:12:25.871Z,962.00
2022-12-23T11:13:25.695Z,960.00
2022-12-23T11:14:25.877Z,920.00
2022-12-23T11:15:25.695Z,873.00
2022-12-23T11:16:25.955Z,848.00
2022-12-23T11:17:26.628Z,846.00
2022-12-23T11:18:26.769Z,818.00
2022-12-23T11:19:25.630Z,738.00
2022-12-23T11:20:25.729Z,624.00
2022-12-23T11:21:25.628Z,516.00
2022-12-23T11:22:25.746Z,428.00
2022-12-23T11:23:25.578Z,365.00
2022-12-23T11:24:25.751Z,339.00
2022-12-23T11:25:25.577Z,331.00
2022-12-23T11:26:25.806Z,317.00
2022-12-23T11:27:25.535Z,317.00
2022-12-23T11:28:25.786Z,325.00
2022-12-23T11:29:25.519Z,328.00
2022-12-23T11:30:25.618Z,339.00
2022-12-23T11:31:25.524Z,348.00
2022-12-23T11:32:25.609Z,353.00
2022-12-23T11:33:25.475Z,379.00
2022-12-23T11:34:47.580Z,413.00
2022-12-23T11:35:25.500Z,450.00
2022-12-23T11:36:25.677Z,468.00
2022-12-23T11:37:27.126Z,463.00
2022-12-23T11:38:25.660Z,453.00
2022-12-23T11:39:25.385Z,459.00
2022-12-23T11:40:25.661Z,459.00
2022-12-23T11:41:25.409Z,469.00
2022-12-23T11:42:25.470Z,493.00
2022-12-23T11:43:25.368Z,525.00
2022-12-23T11:44:25.438Z,520.00
2022-12-23T11:45:25.390Z,495.00
2022-12-23T11:46:25.656Z,494.00
2022-12-23T11:47:25.331Z,497.00
2022-12-23T11:48:25.578Z,523.00
2022-12-23T11:49:25.315Z,560.00
2022-12-23T11:50:25.572Z,585.00
2022-12-23T11:51:25.282Z,609.00
2022-12-23T11:52:25.359Z,623.00
2022-12-23T11:53:25.339Z,607.00
2022-12-23T11:54:25.235Z,608.00
2022-12-23T11:55:25.471Z,656.00
2022-12-23T11:56:25.288Z,636.00
2022-12-23T11:57:25.473Z,527.00
2022-12-23T11:58:25.393Z,451.00
2022-12-23T11:59:25.640Z,433.00
2022-12-23T12:00:25.391Z,429.00
2022-12-23T12:01:25.238Z,390.00
2022-12-23T12:02:25.490Z,338.00
2022-12-23T12:03:27.460Z,332.00
2022-12-23T12:04:25.190Z,387.00
2022-12-23T12:05:25.357Z,441.00
2022-12-23T12:06:25.118Z,485.00
2022-12-23T12:07:26.294Z,506.00
2022-12-23T12:08:25.123Z,514.00
2022-12-23T12:09:25.352Z,521.00
2022-12-23T12:10:25.085Z,528.00
2022-12-23T12:11:25.278Z,477.00
2022-12-23T12:12:25.063Z,362.00
2022-12-23T12:13:25.293Z,297.00
2022-12-23T12:14:25.155Z,255.00
2022-12-23T12:15:25.304Z,260.00
2022-12-23T12:16:25.060Z,330.00
2022-12-23T12:17:25.110Z,466.00
2022-12-23T12:18:25.027Z,734.00
2022-12-23T12:19:25.117Z,961.00
2022-12-23T12:20:24.969Z,1194.00
2022-12-23T12:21:25.026Z,1340.00
2022-12-23T12:22:24.945Z,1247.00
2022-12-23T12:23:25.072Z,1083.00
2022-12-23T12:24:25.131Z,875.00
2022-12-23T12:25:25.077Z,804.00
2022-12-23T12:26:24.922Z,676.00
2022-12-23T12:27:25.087Z,712.00
2022-12-23T12:28:25.361Z,659.00
2022-12-23T12:29:25.133Z,527.00
2022-12-23T12:30:24.943Z,392.00
2022-12-23T12:31:25.048Z,275.00
2022-12-23T12:32:24.841Z,258.00
2022-12-23T12:33:25.086Z,235.00
2022-12-23T12:34:24.845Z,243.00
2022-12-23T12:35:25.948Z,326.00
2022-12-23T12:36:24.892Z,509.00
2022-12-23T12:37:24.937Z,641.00
2022-12-23T12:38:24.763Z,630.00
2022-12-23T12:39:24.877Z,598.00
2022-12-23T12:40:24.781Z,556.00
2022-12-23T12:41:24.874Z,590.00
2022-12-23T12:42:24.734Z,703.00
2022-12-23T12:43:24.993Z,773.00
2022-12-23T12:44:24.743Z,759.00
2022-12-23T12:45:24.895Z,659.00
2022-12-23T12:46:24.754Z,490.00
2022-12-23T12:48:24.676Z,410.00
2022-12-23T12:49:24.922Z,319.00
2022-12-23T12:50:24.675Z,289.00
2022-12-23T12:51:24.740Z,304.00
2022-12-23T12:52:24.628Z,277.00
2022-12-23T12:53:24.983Z,253.00
2022-12-23T12:54:24.762Z,204.00
2022-12-23T12:55:24.591Z,155.00
2022-12-23T12:56:24.766Z,122.00
2022-12-23T12:57:24.588Z,103.00
2022-12-23T12:58:29.829Z,92.00
2022-12-23T12:59:26.735Z,81.00
2022-12-23T13:00:24.553Z,62.00
2022-12-23T13:01:25.784Z,82.00
2022-12-23T13:02:24.574Z,101.00
2022-12-23T13:03:24.804Z,93.00
2022-12-23T13:04:24.479Z,89.00
2022-12-23T13:05:24.665Z,76.00
2022-12-23T13:06:24.477Z,81.00
2022-12-23T13:07:24.641Z,133.00
2022-12-23T13:08:24.460Z,186.00
2022-12-23T13:09:24.558Z,237.00
2022-12-23T13:10:24.426Z,369.00
2022-12-23T13:11:28.369Z,359.00
2022-12-23T13:12:24.399Z,360.00
2022-12-23T13:13:24.760Z,291.00
2022-12-23T13:14:24.396Z,245.00
2022-12-23T13:15:24.593Z,203.00
2022-12-23T13:16:24.417Z,287.00
2022-12-23T13:17:24.637Z,291.00
2022-12-23T13:18:24.339Z,254.00
2022-12-23T13:19:24.431Z,308.00
2022-12-23T13:20:24.303Z,281.00
2022-12-23T13:21:24.445Z,248.00
2022-12-23T13:22:24.307Z,273.00
2022-12-23T13:24:24.456Z,409.00
2022-12-23T13:25:24.276Z,412.00
2022-12-23T13:26:25.511Z,515.00
2022-12-23T13:27:24.263Z,636.00
2022-12-23T13:28:24.484Z,538.00
2022-12-23T13:29:24.223Z,466.00
2022-12-23T13:30:24.515Z,449.00
2022-12-23T13:31:24.217Z,397.00
2022-12-23T13:32:24.420Z,444.00
2022-12-23T13:33:24.257Z,369.00
2022-12-23T13:34:24.427Z,293.00
2022-12-23T13:35:24.137Z,220.00
2022-12-23T13:36:25.600Z,251.00
2022-12-23T13:37:24.133Z,251.00
2022-12-23T13:38:24.246Z,245.00
2022-12-23T13:39:24.107Z,455.00
2022-12-23T13:40:24.254Z,369.00
2022-12-23T13:41:24.150Z,335.00
2022-12-23T13:42:24.279Z,321.00
2022-12-23T13:43:24.050Z,259.00
2022-12-23T13:44:24.272Z,151.00
2022-12-23T13:45:24.035Z,227.00
2022-12-23T13:46:24.382Z,274.00
2022-12-23T13:47:24.016Z,186.00
2022-12-23T13:48:26.986Z,211.00
2022-12-23T13:49:24.023Z,271.00
2022-12-23T13:50:26.389Z,219.00
2022-12-23T13:51:23.971Z,209.00
2022-12-23T13:52:25.315Z,255.00
2022-12-23T13:53:23.948Z,236.00
2022-12-23T13:54:24.087Z,246.00
2022-12-23T13:55:24.064Z,221.00
2022-12-23T13:56:23.917Z,193.00
2022-12-23T13:57:24.101Z,197.00
2022-12-23T13:58:23.911Z,259.00
2022-12-23T13:59:24.074Z,321.00
2022-12-23T14:00:24.180Z,317.00
2022-12-23T14:01:23.907Z,345.00
2022-12-23T14:02:24.125Z,278.00
2022-12-23T14:03:23.880Z,296.00
2022-12-23T14:04:24.194Z,211.00
2022-12-23T14:05:23.820Z,267.00
2022-12-23T14:06:23.999Z,334.00
2022-12-23T14:07:23.828Z,210.00
2022-12-23T14:08:23.963Z,439.00
2022-12-23T14:09:23.784Z,559.00
2022-12-23T14:10:23.960Z,480.00
2022-12-23T14:11:23.769Z,331.00
2022-12-23T14:12:24.001Z,183.00
2022-12-23T14:13:23.779Z,48.00
2022-12-23T14:14:23.987Z,117.00
2022-12-23T14:15:23.766Z,708.00
2022-12-23T14:16:24.027Z,765.00
2022-12-23T14:17:23.712Z,377.00
2022-12-23T14:18:23.910Z,165.00
2022-12-23T14:19:23.717Z,149.00
2022-12-23T14:20:23.964Z,133.00
2022-12-23T14:21:23.662Z,140.00
2022-12-23T14:22:23.927Z,116.00
2022-12-23T14:23:23.644Z,71.00
2022-12-23T14:24:23.809Z,77.00
2022-12-23T14:25:23.618Z,152.00
2022-12-23T14:26:23.768Z,599.00
2022-12-23T14:27:23.615Z,467.00
2022-12-23T14:28:23.796Z,297.00
2022-12-23T14:29:23.575Z,201.00
2022-12-23T14:30:44.857Z,244.00
2022-12-23T14:31:23.652Z,413.00
2022-12-23T14:32:25.805Z,295.00
2022-12-23T14:33:23.535Z,165.00
2022-12-23T14:34:23.732Z,234.00
2022-12-23T14:35:23.511Z,446.00
2022-12-23T14:36:24.870Z,417.00
2022-12-23T14:37:23.477Z,304.00
2022-12-23T14:38:26.959Z,109.00
2022-12-23T14:39:23.471Z,156.00
2022-12-23T14:40:45.599Z,272.00
2022-12-23T14:41:33.533Z,336.00
2022-12-23T14:42:23.461Z,312.00
2022-12-23T14:43:44.627Z,197.00
2022-12-23T14:44:23.404Z,194.00
2022-12-23T14:45:23.417Z,142.00
2022-12-23T14:46:23.539Z,158.00
2022-12-23T14:47:23.411Z,294.00
2022-12-23T14:48:23.520Z,120.00
2022-12-23T14:49:39.667Z,167.00
2022-12-23T14:50:23.352Z,153.00
2022-12-23T14:51:23.556Z,160.00
2022-12-23T14:52:23.327Z,224.00
2022-12-23T14:53:23.496Z,192.00
2022-12-23T14:54:23.320Z,120.00
2022-12-23T14:55:31.897Z,191.00
2022-12-23T14:56:23.313Z,142.00
2022-12-23T14:57:23.393Z,317.00
2022-12-23T14:58:23.295Z,180.00
2022-12-23T14:59:23.396Z,109.00
2022-12-23T15:00:23.258Z,146.00
2022-12-23T15:01:23.432Z,393.00
2022-12-23T15:02:23.377Z,486.00
2022-12-23T15:03:23.656Z,421.00
2022-12-23T15:04:23.260Z,400.00
2022-12-23T15:05:23.430Z,350.00
2022-12-23T15:06:23.178Z,290.00
2022-12-23T15:07:23.436Z,235.00
2022-12-23T15:08:23.156Z,195.00
2022-12-23T15:09:23.247Z,172.00
2022-12-23T15:10:23.195Z,151.00
2022-12-23T15:11:23.261Z,127.00
2022-12-23T15:12:27.839Z,97.00
2022-12-23T15:13:23.131Z,84.00
2022-12-23T15:14:23.287Z,78.00
2022-12-23T15:15:23.077Z,64.00
2022-12-23T15:16:23.353Z,94.00
2022-12-23T15:17:23.300Z,101.00
2022-12-23T15:18:23.063Z,105.00
2022-12-23T15:19:23.357Z,116.00
2022-12-23T15:20:23.050Z,132.00
2022-12-23T15:21:23.125Z,143.00
2022-12-23T15:22:30.370Z,145.00
2022-12-23T15:23:23.028Z,146.00
2022-12-23T15:24:23.211Z,141.00
2022-12-23T15:25:23.015Z,124.00
2022-12-23T15:26:23.172Z,108.00
2022-12-23T15:27:28.271Z,108.00
2022-12-23T15:28:22.969Z,96.00
2022-12-23T15:29:23.090Z,84.00
2022-12-23T15:30:22.949Z,83.00
2022-12-23T15:31:23.146Z,82.00
2022-12-23T15:32:22.914Z,79.00
2022-12-23T15:34:00.529Z,73.00
2022-12-23T15:34:22.909Z,67.00
2022-12-23T15:35:23.168Z,63.00
2022-12-23T15:36:22.898Z,56.00
2022-12-23T15:37:23.139Z,52.00
2022-12-23T15:38:22.847Z,48.00
2022-12-23T15:39:23.974Z,42.00
2022-12-23T15:40:22.815Z,30.00
2022-12-23T15:41:25.048Z,23.00
2022-12-23T15:42:22.796Z,26.00
2022-12-23T15:43:24.014Z,26.00
2022-12-23T15:44:22.788Z,24.00
2022-12-23T15:45:24.062Z,21.00
2022-12-23T15:46:29.020Z,15.00
2022-12-23T15:47:22.841Z,11.00
2022-12-23T15:48:24.048Z,8.00
2022-12-23T15:49:22.714Z,5.00
2022-12-23T15:50:22.826Z,3.00
2022-12-23T15:51:49.526Z,2.00
2022-12-23T15:52:22.793Z,0.00
2022-12-23T15:53:22.951Z,1.00
2022-12-23T15:54:22.675Z,2.00
2022-12-23T15:55:22.960Z,2.00
2022-12-23T15:56:22.724Z,0.00
2022-12-23T15:57:22.764Z,1.00
2022-12-23T15:58:22.646Z,2.00
2022-12-23T15:59:22.781Z,2.00
2022-12-23T16:00:22.605Z,1.00
2022-12-23T16:01:22.859Z,0.00
2022-12-23T16:02:58.987Z,0.00
2022-12-23T16:03:22.975Z,0.00
2022-12-23T16:04:22.704Z,0.00
2022-12-23T16:05:22.833Z,0.00
2022-12-23T16:06:22.607Z,0.00
2022-12-23T16:07:22.892Z,0.00
2022-12-23T16:08:28.551Z,0.00
2022-12-23T16:09:22.566Z,0.00
2022-12-23T16:10:22.906Z,0.00
2022-12-23T16:11:22.565Z,0.00
2022-12-23T16:12:23.915Z,0.00
2022-12-23T16:13:22.549Z,0.00
2022-12-23T16:14:22.728Z,0.00
2022-12-23T16:15:22.495Z,0.00
2022-12-23T16:16:43.847Z,0.00
2022-12-23T16:17:22.514Z,0.00
2022-12-23T16:18:22.456Z,0.00
2022-12-23T16:19:26.860Z,0.00
2022-12-23T16:20:22.461Z,0.00
2022-12-23T16:21:22.770Z,0.00
2022-12-23T16:22:22.433Z,0.00
2022-12-23T16:23:22.551Z,0.00
2022-12-23T16:24:22.561Z,0.00
2022-12-23T16:25:22.420Z,0.00
2022-12-23T16:26:22.563Z,0.00
2022-12-23T16:27:22.392Z,0.00
2022-12-23T16:30:18.947Z,0.00
2022-12-23T16:31:17.716Z,0.00
2022-12-23T16:32:18.020Z,0.00
2022-12-23T16:33:17.731Z,0.00
2022-12-23T16:35:29.632Z,0.00
2022-12-23T16:36:29.471Z,0.00
2022-12-23T16:37:51.430Z,0.00
2022-12-23T16:38:29.368Z,0.00
2022-12-23T16:39:29.510Z,0.00
2022-12-23T16:40:29.345Z,0.00
2022-12-23T16:41:29.563Z,0.00
2022-12-23T16:42:29.322Z,0.00
2022-12-23T16:43:29.547Z,0.00
2022-12-23T16:44:32.709Z,0.00
2022-12-23T16:45:29.326Z,0.00
2022-12-23T16:46:29.554Z,0.00
2022-12-23T16:47:29.264Z,0.00
2022-12-23T16:48:29.599Z,0.00
2022-12-23T16:49:33.439Z,0.00
2022-12-23T16:50:29.245Z,0.00
2022-12-23T16:51:29.492Z,0.00
2022-12-23T16:52:29.254Z,0.00
2022-12-23T16:53:29.508Z,0.00
2022-12-23T16:54:29.207Z,0.00
2022-12-23T16:55:29.427Z,0.00
2022-12-23T16:56:29.183Z,0.00
2022-12-23T16:57:29.462Z,0.00
2022-12-23T16:58:29.169Z,0.00
2022-12-23T16:59:29.437Z,0.00
2022-12-23T17:00:29.148Z,0.00
2022-12-23T17:01:29.241Z,0.00
2022-12-23T17:02:29.393Z,0.00
2022-12-23T17:03:29.131Z,0.00
2022-12-23T17:04:29.295Z,0.00
2022-12-23T17:05:29.093Z,0.00
2022-12-23T17:06:29.303Z,0.00
2022-12-23T17:07:29.099Z,0.00
2022-12-23T17:08:29.325Z,0.00
2022-12-23T17:09:29.069Z,0.00
2022-12-23T17:10:50.212Z,0.00
2022-12-23T17:11:29.034Z,0.00
2022-12-23T17:12:29.178Z,0.00
2022-12-23T17:13:29.022Z,0.00
2022-12-23T17:14:29.212Z,0.00
2022-12-23T17:15:29.164Z,0.00
2022-12-23T17:16:29.074Z,0.00
2022-12-23T17:17:29.183Z,0.00
2022-12-23T17:18:28.967Z,0.00
2022-12-23T17:19:29.728Z,0.00
2022-12-23T17:20:28.932Z,0.00
2022-12-23T17:21:29.238Z,0.00
2022-12-23T17:22:28.910Z,0.00
2022-12-23T17:23:29.042Z,0.00
2022-12-23T17:24:28.891Z,0.00
2022-12-23T17:25:29.032Z,0.00
2022-12-23T17:26:28.876Z,0.00
2022-12-23T17:27:29.038Z,0.00
2022-12-23T17:28:28.862Z,0.00
2022-12-23T17:29:29.098Z,0.00
2022-12-23T17:30:29.067Z,0.00
2022-12-23T17:31:28.852Z,0.00
2022-12-23T17:32:29.187Z,0.00
2022-12-23T17:33:28.811Z,0.00
2022-12-23T17:34:29.099Z,0.00
2022-12-23T17:35:28.940Z,0.00
2022-12-23T17:36:28.853Z,0.00
2022-12-23T17:37:29.972Z,0.00
2022-12-23T17:38:28.738Z,0.00
2022-12-23T17:39:29.020Z,0.00
2022-12-23T17:40:29.959Z,0.00
2022-12-23T17:41:28.727Z,0.00
2022-12-23T17:42:28.977Z,0.00
2022-12-23T17:43:28.717Z,0.00
2022-12-23T17:44:28.959Z,0.00
2022-12-23T17:45:28.721Z,0.00
2022-12-23T17:46:49.960Z,0.00
2022-12-23T17:47:28.668Z,0.00
2022-12-23T17:48:32.212Z,0.00
2022-12-23T17:49:28.639Z,0.00
2022-12-23T17:50:29.920Z,0.00
2022-12-23T17:51:28.622Z,0.00
2022-12-23T17:52:29.972Z,0.00
2022-12-23T17:53:28.588Z,0.00
2022-12-23T17:54:28.727Z,0.00
2022-12-23T17:55:28.607Z,0.00
2022-12-23T17:56:28.805Z,0.00
2022-12-23T17:57:28.582Z,0.00
2022-12-23T17:58:28.745Z,0.00
2022-12-23T17:59:28.544Z,0.00
2022-12-23T18:00:34.212Z,0.00
2022-12-23T18:01:28.626Z,0.00
2022-12-23T18:02:28.818Z,0.00
2022-12-23T18:03:28.518Z,0.00
2022-12-23T18:04:28.788Z,0.00
2022-12-23T18:05:28.463Z,0.00
2022-12-23T18:06:28.514Z,0.00
2022-12-23T18:07:28.435Z,0.00
2022-12-23T18:08:28.510Z,0.00
2022-12-23T18:09:28.432Z,0.00
2022-12-23T18:10:30.572Z,0.00
2022-12-23T18:11:28.404Z,0.00
2022-12-23T18:12:28.431Z,0.00
2022-12-23T18:13:28.400Z,0.00
2022-12-23T18:14:28.458Z,0.00
2022-12-23T18:15:28.384Z,0.00
2022-12-23T18:16:28.598Z,0.00
2022-12-23T18:17:28.330Z,0.00
2022-12-23T18:18:35.608Z,0.00
2022-12-23T18:19:28.345Z,0.00
2022-12-23T18:20:28.488Z,0.00
2022-12-23T18:21:28.528Z,0.00
2022-12-23T18:22:28.335Z,0.00
2022-12-23T18:23:29.457Z,0.00
2022-12-23T18:24:28.304Z,0.00
2022-12-23T18:25:28.314Z,0.00
2022-12-23T18:26:28.345Z,0.00
2022-12-23T18:27:28.242Z,0.00
2022-12-23T18:28:28.442Z,0.00
2022-12-23T18:29:28.215Z,0.00
2022-12-23T18:30:30.595Z,0.00
2022-12-23T18:31:28.425Z,0.00
2022-12-23T18:32:28.192Z,0.00
2022-12-23T18:33:28.275Z,0.00
2022-12-23T18:34:28.169Z,0.00
2022-12-23T18:35:29.319Z,0.00
2022-12-23T18:36:28.526Z,0.00
2022-12-23T18:37:28.143Z,0.00
2022-12-23T18:38:49.206Z,0.00
2022-12-23T18:39:28.123Z,0.00
2022-12-23T18:40:49.238Z,0.00
2022-12-23T18:41:28.115Z,0.00
2022-12-23T18:42:28.086Z,0.00
2022-12-23T18:43:28.154Z,0.00
2022-12-23T18:44:28.100Z,0.00
2022-12-23T18:45:28.165Z,0.00
2022-12-23T18:46:28.096Z,0.00
2022-12-23T18:47:28.333Z,0.00
2022-12-23T18:48:28.054Z,0.00
2022-12-23T18:49:28.097Z,0.00
2022-12-23T18:50:28.034Z,0.00
2022-12-23T18:51:28.107Z,0.00
2022-12-23T18:52:28.027Z,0.00
2022-12-23T18:53:28.282Z,0.00
2022-12-23T18:54:28.060Z,0.00
2022-12-23T18:55:29.300Z,0.00
2022-12-23T18:56:27.957Z,0.00
2022-12-23T18:57:28.260Z,0.00
2022-12-23T18:58:27.960Z,0.00
2022-12-23T18:59:30.248Z,0.00
2022-12-23T19:00:27.898Z,0.00
2022-12-23T19:01:28.197Z,0.00
2022-12-23T19:02:27.915Z,0.00
2022-12-23T19:03:28.960Z,0.00
2022-12-23T19:04:28.678Z,0.00
2022-12-23T19:09:57.439Z,0.00
2022-12-23T19:10:58.252Z,0.00
2022-12-23T19:11:58.458Z,0.00
2022-12-23T19:12:58.198Z,0.00
2022-12-23T19:13:58.628Z,0.00
2022-12-23T19:14:58.207Z,0.00
2022-12-23T19:15:59.613Z,0.00
2022-12-23T19:16:58.187Z,0.00
2022-12-23T19:17:58.402Z,0.00
2022-12-23T19:18:58.216Z,0.00
2022-12-23T19:20:00.402Z,0.00
2022-12-23T19:20:58.151Z,0.00
2022-12-23T19:21:59.433Z,0.00
2022-12-23T19:22:58.107Z,0.00
2022-12-23T19:23:58.339Z,0.00
2022-12-23T19:25:05.918Z,0.00
2022-12-23T19:25:58.107Z,0.00
2022-12-23T19:27:00.423Z,0.00
2022-12-23T19:27:58.071Z,0.00
2022-12-23T19:28:58.302Z,0.00
2022-12-23T19:29:58.036Z,0.00
2022-12-23T19:30:58.290Z,0.00
2022-12-23T19:31:59.611Z,0.00
2022-12-23T19:32:59.202Z,0.00
2022-12-23T19:33:58.012Z,0.00
2022-12-23T19:34:58.194Z,0.00
2022-12-23T19:35:58.011Z,0.00
2022-12-23T19:36:58.244Z,0.00
2022-12-23T19:38:19.011Z,0.00
2022-12-23T19:38:57.949Z,0.00
2022-12-23T19:39:58.129Z,0.00
2022-12-23T19:40:57.920Z,0.00
2022-12-23T19:41:58.040Z,0.00
2022-12-23T19:42:58.093Z,0.00
2022-12-23T19:43:58.669Z,0.00
2022-12-23T19:44:58.104Z,0.00
2022-12-23T19:45:57.936Z,0.00
2022-12-23T19:46:58.074Z,0.00
2022-12-23T19:47:58.128Z,0.00
2022-12-23T19:48:57.845Z,0.00
2022-12-23T19:49:58.113Z,0.00
2022-12-23T19:50:57.842Z,0.00
2022-12-23T19:51:58.121Z,0.00
2022-12-23T19:52:57.795Z,0.00
2022-12-23T19:53:58.051Z,0.00
2022-12-23T19:54:57.775Z,0.00
2022-12-23T19:55:59.232Z,0.00
2022-12-23T19:56:57.770Z,0.00
2022-12-23T19:57:57.967Z,0.00
2022-12-23T19:58:57.774Z,0.00
2022-12-23T19:59:57.804Z,0.00
2022-12-23T20:00:57.705Z,0.00
2022-12-23T20:01:58.926Z,0.00
2022-12-23T20:02:59.132Z,0.00
2022-12-23T20:03:57.913Z,0.00
2022-12-23T20:04:57.695Z,0.00
2022-12-23T20:05:57.741Z,0.00
2022-12-23T20:06:57.644Z,0.00
2022-12-23T20:07:57.724Z,0.00
2022-12-23T20:09:00.551Z,0.00
2022-12-23T20:09:58.650Z,0.00
2022-12-23T20:10:57.603Z,0.00
2022-12-23T20:11:57.773Z,0.00
2022-12-23T20:12:57.574Z,0.00
2022-12-23T20:13:57.762Z,0.00
2022-12-23T20:14:57.593Z,0.00
2022-12-23T20:15:57.629Z,0.00
2022-12-23T20:16:57.532Z,0.00
2022-12-23T20:17:57.589Z,0.00
2022-12-23T20:18:57.534Z,0.00
2022-12-23T20:19:57.616Z,0.00
2022-12-23T20:20:57.530Z,0.00
2022-12-23T20:21:58.676Z,0.00
2022-12-23T20:22:57.620Z,0.00
2022-12-23T20:23:57.533Z,0.00
2022-12-23T20:24:57.465Z,0.00
2022-12-23T20:25:57.545Z,0.00
2022-12-23T20:26:57.438Z,0.00
2022-12-23T20:27:57.461Z,0.00
2022-12-23T20:28:57.483Z,0.00
2022-12-23T20:29:57.420Z,0.00
2022-12-23T20:30:57.537Z,0.00
2022-12-23T20:31:57.376Z,0.00
2022-12-23T20:32:57.518Z,0.00
2022-12-23T20:33:57.508Z,0.00
2022-12-23T20:34:57.340Z,0.00
2022-12-23T20:35:57.486Z,0.00
2022-12-23T20:36:57.314Z,0.00
2022-12-23T20:37:57.547Z,0.00
2022-12-23T20:38:57.532Z,0.00
2022-12-23T20:39:57.289Z,0.00
2022-12-23T20:40:57.440Z,0.00
2022-12-23T20:41:57.277Z,0.00
2022-12-23T20:42:57.446Z,0.00
2022-12-23T20:44:32.540Z,0.00
2022-12-23T20:44:57.261Z,0.00
2022-12-23T20:45:57.368Z,0.00
2022-12-23T20:46:57.368Z,0.00
2022-12-23T20:47:57.241Z,0.00
2022-12-23T20:48:57.399Z,0.00
2022-12-23T20:49:57.188Z,0.00
2022-12-23T20:50:57.244Z,0.00
2022-12-23T20:51:57.160Z,0.00
2022-12-23T20:52:59.381Z,0.00
2022-12-23T20:53:57.160Z,0.00
2022-12-23T20:54:57.376Z,0.00
2022-12-23T20:55:58.437Z,0.00
2022-12-23T20:56:58.419Z,0.00
2022-12-23T20:57:57.114Z,0.00
2022-12-23T20:58:57.154Z,0.00
2022-12-23T20:59:57.138Z,0.00
2022-12-23T21:00:57.167Z,0.00
2022-12-23T21:01:57.119Z,0.00
2022-12-23T21:02:57.157Z,0.00
2022-12-23T21:03:57.046Z,0.00